createdAt,value
2018-12-13T00:00:06.463Z,8.77
2018-12-13T00:02:33.954Z,7.97
2018-12-13T00:05:01.600Z,7.40
2018-12-13T00:07:29.235Z,7.57
2018-12-13T00:09:56.771Z,7.97
2018-12-13T00:12:24.258Z,7.73
2018-12-13T00:14:51.830Z,8.13
2018-12-13T00:17:19.493Z,7.50
2018-12-13T00:19:47.221Z,8.23
2018-12-13T00:22:14.704Z,8.10
2018-12-13T00:24:42.258Z,8.50
2018-12-13T00:27:09.776Z,8.07
2018-12-13T00:29:37.268Z,7.80
2018-12-13T00:32:04.875Z,8.73
2018-12-13T00:34:32.631Z,10.57
2018-12-13T00:37:00.159Z,10.43
2018-12-13T00:39:27.665Z,8.37
2018-12-13T00:41:55.152Z,9.40
2018-12-13T00:44:22.727Z,10.23
2018-12-13T00:46:50.436Z,8.40
2018-12-13T00:49:18.195Z,9.73
2018-12-13T00:51:46.595Z,9.03
2018-12-13T00:54:14.564Z,8.63
2018-12-13T00:56:42.098Z,8.60
2018-12-13T00:59:09.619Z,9.43
2018-12-13T01:01:37.189Z,9.50
2018-12-13T01:04:04.848Z,8.27
2018-12-13T01:06:32.648Z,8.27
2018-12-13T01:09:00.125Z,9.20
2018-12-13T01:11:27.769Z,8.53
2018-12-13T01:13:55.247Z,8.57
2018-12-13T01:16:23.498Z,8.20
2018-12-13T01:18:51.474Z,9.20
2018-12-13T01:21:20.860Z,8.07
2018-12-13T01:23:48.592Z,7.87
2018-12-13T01:26:16.153Z,7.97
2018-12-13T01:28:43.928Z,8.57
2018-12-13T01:31:12.568Z,8.47
2018-12-13T01:33:40.151Z,8.70
2018-12-13T01:36:07.827Z,8.27
2018-12-13T01:38:35.335Z,8.87
2018-12-13T01:41:02.830Z,8.70
2018-12-13T01:43:30.600Z,8.37
2018-12-13T01:45:58.084Z,7.50
2018-12-13T01:48:25.594Z,8.07
2018-12-13T01:50:53.469Z,9.07
2018-12-13T01:53:21.006Z,7.77
2018-12-13T01:55:48.900Z,8.07
2018-12-13T01:58:16.384Z,8.47
2018-12-13T02:00:43.920Z,8.07
2018-12-13T02:03:11.397Z,8.57
2018-12-13T02:05:39.050Z,8.00
2018-12-13T02:08:06.909Z,8.67
2018-12-13T02:10:34.393Z,8.87
2018-12-13T02:13:01.887Z,9.13
2018-12-13T02:15:29.410Z,8.70
2018-12-13T02:17:57.240Z,8.53
2018-12-13T02:20:25.189Z,7.77
2018-12-13T02:22:52.728Z,8.83
2018-12-13T02:25:20.604Z,8.80
2018-12-13T02:27:48.143Z,8.70
2018-12-13T02:30:17.669Z,8.67
2018-12-13T02:32:45.545Z,9.60
2018-12-13T02:35:13.317Z,9.50
2018-12-13T02:37:41.185Z,9.47
2018-12-13T02:40:08.739Z,9.90
2018-12-13T02:42:36.237Z,9.87
2018-12-13T02:45:03.897Z,10.20
2018-12-13T02:47:31.387Z,10.37
2018-12-13T02:49:59.045Z,11.10
2018-12-13T02:52:26.541Z,11.77
2018-12-13T02:54:54.336Z,11.47
2018-12-13T02:57:21.845Z,10.90
2018-12-13T02:59:49.336Z,12.57
2018-12-13T03:02:16.859Z,11.93
2018-12-13T03:04:44.917Z,13.03
2018-12-13T03:07:13.902Z,12.27
2018-12-13T03:09:41.837Z,12.87
2018-12-13T03:12:09.611Z,13.13
2018-12-13T03:14:37.184Z,13.13
2018-12-13T03:17:04.864Z,12.77
2018-12-13T03:19:32.523Z,14.63
2018-12-13T03:22:00.034Z,12.80
2018-12-13T03:24:27.582Z,14.47
2018-12-13T03:26:55.087Z,13.87
2018-12-13T03:29:22.623Z,13.97
2018-12-13T03:31:50.470Z,14.80
2018-12-13T03:34:18.265Z,13.40
2018-12-13T03:36:46.069Z,14.90
2018-12-13T03:39:13.961Z,14.93
2018-12-13T03:41:41.524Z,15.67
2018-12-13T03:44:09.063Z,14.60
2018-12-13T03:46:36.628Z,14.63
2018-12-13T03:49:04.134Z,15.97
2018-12-13T03:51:31.805Z,16.10
2018-12-13T03:53:59.386Z,15.57
2018-12-13T03:56:27.422Z,14.37
2018-12-13T03:58:54.929Z,16.13
2018-12-13T04:01:22.458Z,15.47
2018-12-13T04:03:50.400Z,15.07
2018-12-13T04:06:18.053Z,16.17
2018-12-13T04:08:45.641Z,15.80
2018-12-13T04:11:13.541Z,17.60
2018-12-13T04:13:41.040Z,15.43
2018-12-13T04:16:08.693Z,17.13
2018-12-13T04:18:36.632Z,19.87
2018-12-13T04:21:04.182Z,18.07
2018-12-13T04:23:31.952Z,20.30
2018-12-13T04:25:59.583Z,17.37
2018-12-13T04:28:27.087Z,19.13
2018-12-13T04:30:54.583Z,17.80
2018-12-13T04:33:22.132Z,19.50
2018-12-13T04:35:50.186Z,19.20
2018-12-13T04:38:17.715Z,20.90
2018-12-13T04:40:45.204Z,19.67
2018-12-13T04:43:12.726Z,20.90
2018-12-13T04:45:40.266Z,19.13
2018-12-13T04:48:07.752Z,21.27
2018-12-13T04:50:35.653Z,20.37
2018-12-13T04:53:03.191Z,19.40
2018-12-13T04:55:31.168Z,21.07
2018-12-13T04:57:58.744Z,20.43
2018-12-13T05:00:26.297Z,18.80
2018-12-13T05:02:54.395Z,19.33
2018-12-13T05:05:22.292Z,19.33
2018-12-13T05:07:49.810Z,18.40
2018-12-13T05:10:23.396Z,17.63
2018-12-13T05:12:51.051Z,20.17
2018-12-13T05:15:18.585Z,19.27
2018-12-13T05:17:46.073Z,20.13
2018-12-13T05:20:13.610Z,19.80
2018-12-13T05:22:41.409Z,21.13
2018-12-13T05:25:08.940Z,18.57
2018-12-13T05:27:36.486Z,19.97
2018-12-13T05:30:04.441Z,20.07
2018-12-13T05:32:32.156Z,20.97
2018-12-13T05:34:59.925Z,18.43
2018-12-13T05:37:27.777Z,21.60
2018-12-13T05:39:55.267Z,20.80
2018-12-13T05:42:22.756Z,20.67
2018-12-13T05:44:50.528Z,20.33
2018-12-13T05:47:18.022Z,19.73
2018-12-13T05:49:46.117Z,20.93
2018-12-13T05:52:13.757Z,21.50
2018-12-13T05:54:41.584Z,20.43
2018-12-13T05:57:09.079Z,21.17
2018-12-13T05:59:36.724Z,20.20
2018-12-13T06:02:04.229Z,21.73
2018-12-13T06:04:32.222Z,22.83
2018-12-13T06:06:59.704Z,21.47
2018-12-13T06:09:27.210Z,20.13
2018-12-13T06:11:54.759Z,21.13
2018-12-13T06:14:22.288Z,20.77
2018-12-13T06:16:50.050Z,21.33
2018-12-13T06:19:17.931Z,20.47
2018-12-13T06:21:45.423Z,22.20
2018-12-13T06:24:12.967Z,21.07
2018-12-13T06:26:40.472Z,22.53
2018-12-13T06:29:08.011Z,19.93
2018-12-13T06:31:35.535Z,23.80
2018-12-13T06:34:03.316Z,21.03
2018-12-13T06:36:31.401Z,21.00
2018-12-13T06:38:58.924Z,22.57
2018-12-13T06:41:26.769Z,19.97
2018-12-13T06:43:54.940Z,19.17
2018-12-13T06:46:22.504Z,20.73
2018-12-13T06:48:49.999Z,20.60
2018-12-13T06:51:17.687Z,20.87
2018-12-13T06:53:45.173Z,19.30
2018-12-13T06:56:12.777Z,20.90
2018-12-13T06:58:40.308Z,18.70
2018-12-13T07:01:08.238Z,19.60
2018-12-13T07:03:35.728Z,23.13
2018-12-13T07:06:03.637Z,21.80
2018-12-13T07:08:31.172Z,20.80
2018-12-13T07:10:58.674Z,20.03
2018-12-13T07:13:26.652Z,21.67
2018-12-13T07:15:54.152Z,21.53
2018-12-13T07:18:21.654Z,22.07
2018-12-13T07:20:49.279Z,22.47
2018-12-13T07:23:16.768Z,21.30
2018-12-13T07:25:44.264Z,21.97
2018-12-13T07:28:12.234Z,22.40
2018-12-13T07:30:40.155Z,22.40
2018-12-13T07:33:08.038Z,22.13
2018-12-13T07:35:36.061Z,22.47
2018-12-13T07:38:03.878Z,23.03
2018-12-13T07:40:31.470Z,22.33
2018-12-13T07:42:58.964Z,24.20
2018-12-13T07:45:26.687Z,22.23
2018-12-13T07:47:54.242Z,23.80
2018-12-13T07:50:21.883Z,20.90
2018-12-13T07:52:49.425Z,21.43
2018-12-13T07:55:17.193Z,20.73
2018-12-13T07:57:44.771Z,22.90
2018-12-13T08:00:12.502Z,21.17
2018-12-13T08:02:40.284Z,22.50
2018-12-13T08:05:08.329Z,22.60
2018-12-13T08:07:35.826Z,21.10
2018-12-13T08:10:03.960Z,22.30
2018-12-13T08:12:31.524Z,20.63
2018-12-13T08:14:59.077Z,22.23
2018-12-13T08:17:27.037Z,26.27
2018-12-13T08:19:54.744Z,21.87
2018-12-13T08:22:22.558Z,19.77
2018-12-13T08:24:50.353Z,19.57
2018-12-13T08:27:17.938Z,18.47
2018-12-13T08:29:45.636Z,20.13
2018-12-13T08:32:13.338Z,20.43
2018-12-13T08:34:41.147Z,22.13
2018-12-13T08:37:08.766Z,20.13
2018-12-13T08:39:36.788Z,20.90
2018-12-13T08:42:04.597Z,20.90
2018-12-13T08:44:32.138Z,21.63
2018-12-13T08:47:00.011Z,21.13
2018-12-13T08:49:27.752Z,19.57
2018-12-13T08:51:55.838Z,21.20
2018-12-13T08:54:23.796Z,21.00
2018-12-13T08:56:51.331Z,19.87
2018-12-13T08:59:18.874Z,22.57
2018-12-13T09:01:46.728Z,19.53
2018-12-13T09:04:14.620Z,19.27
2018-12-13T09:06:42.093Z,18.20
2018-12-13T09:09:09.639Z,18.17
2018-12-13T09:11:37.233Z,19.50
2018-12-13T09:14:04.750Z,16.53
2018-12-13T09:16:32.821Z,17.77
2018-12-13T09:19:00.600Z,20.07
2018-12-13T09:21:28.088Z,19.60
2018-12-13T09:23:55.618Z,17.40
2018-12-13T09:26:23.138Z,18.87
2018-12-13T09:28:50.637Z,16.87
2018-12-13T09:31:18.361Z,19.27
2018-12-13T09:33:46.629Z,18.03
2018-12-13T09:36:14.488Z,19.97
2018-12-13T09:38:42.234Z,17.50
2018-12-13T09:41:09.763Z,16.87
2018-12-13T09:43:38.066Z,16.67
2018-12-13T09:46:05.564Z,17.17
2018-12-13T09:48:33.617Z,17.00
2018-12-13T09:51:01.428Z,17.77
2018-12-13T09:53:28.925Z,16.30
2018-12-13T09:55:56.436Z,16.80
2018-12-13T09:58:23.952Z,17.40
2018-12-13T10:00:51.448Z,17.50
2018-12-13T10:03:18.954Z,16.87
2018-12-13T10:05:46.643Z,19.40
2018-12-13T10:08:14.644Z,17.37
2018-12-13T10:10:42.232Z,16.90
2018-12-13T10:13:10.817Z,17.00
2018-12-13T10:15:38.402Z,17.87
2018-12-13T10:18:05.950Z,17.63
2018-12-13T10:20:34.089Z,19.30
2018-12-13T10:23:01.818Z,18.40
2018-12-13T10:25:29.316Z,17.13
2018-12-13T10:27:56.823Z,16.27
2018-12-13T10:30:24.620Z,18.23
2018-12-13T10:32:52.272Z,15.80
2018-12-13T10:35:19.935Z,15.27
2018-12-13T10:37:47.689Z,20.97
2018-12-13T10:40:15.228Z,15.97
2018-12-13T10:42:42.715Z,18.90
2018-12-13T10:45:10.264Z,16.97
2018-12-13T10:47:37.841Z,18.00
2018-12-13T10:50:06.118Z,17.80
2018-12-13T10:52:34.225Z,16.60
2018-12-13T10:55:02.511Z,16.93
2018-12-13T10:57:30.003Z,16.53
2018-12-13T10:59:57.500Z,18.43
2018-12-13T11:02:30.988Z,18.37
2018-12-13T11:04:59.681Z,15.63
2018-12-13T11:07:27.226Z,16.57
2018-12-13T11:09:55.119Z,17.07
2018-12-13T11:12:22.834Z,15.63
2018-12-13T11:14:50.326Z,18.23
2018-12-13T11:17:17.825Z,18.63
2018-12-13T11:19:45.751Z,17.27
2018-12-13T11:22:13.571Z,19.00
2018-12-13T11:24:41.112Z,18.17
2018-12-13T11:27:15.932Z,15.23
2018-12-13T11:29:49.418Z,16.57
2018-12-13T11:32:16.995Z,14.60
2018-12-13T11:34:45.002Z,14.40
2018-12-13T11:37:12.785Z,15.73
2018-12-13T11:39:40.280Z,14.73
2018-12-13T11:42:07.782Z,17.83
2018-12-13T11:44:35.314Z,15.00
2018-12-13T11:47:02.844Z,13.73
2018-12-13T11:49:30.569Z,14.10
2018-12-13T11:51:58.070Z,15.33
2018-12-13T11:54:27.580Z,14.00
2018-12-13T11:56:55.097Z,15.93
2018-12-13T11:59:22.612Z,15.37
2018-12-13T12:01:50.722Z,14.67
2018-12-13T12:04:18.410Z,16.07
2018-12-13T12:06:45.938Z,15.70
2018-12-13T12:09:13.924Z,16.77
2018-12-13T12:11:41.425Z,16.40
2018-12-13T12:14:09.015Z,17.47
2018-12-13T12:16:36.897Z,16.57
2018-12-13T12:19:05.064Z,18.33
2018-12-13T12:21:32.560Z,18.03
2018-12-13T12:24:00.088Z,16.70
2018-12-13T12:26:28.520Z,17.37
2018-12-13T12:28:56.008Z,16.07
2018-12-13T12:31:23.512Z,15.67
2018-12-13T12:33:51.270Z,15.20
2018-12-13T12:36:19.555Z,16.63
2018-12-13T12:45:45.680Z,18.17
2018-12-13T12:48:13.708Z,17.50
2018-12-13T12:50:41.636Z,19.47
2018-12-13T12:53:09.083Z,18.67
2018-12-13T12:55:36.540Z,17.87
2018-12-13T12:58:04.613Z,19.17
2018-12-13T13:00:32.731Z,17.73
2018-12-13T13:03:00.187Z,19.17
2018-12-13T13:05:27.828Z,25.77
2018-12-13T13:07:55.284Z,16.93
2018-12-13T13:10:22.910Z,17.77
2018-12-13T13:12:50.764Z,19.00
2018-12-13T13:15:18.745Z,16.90
2018-12-13T13:17:46.216Z,17.80
2018-12-13T13:20:14.185Z,18.13
2018-12-13T13:22:41.691Z,16.77
2018-12-13T13:25:09.288Z,17.40
2018-12-13T13:27:36.950Z,18.43
2018-12-13T13:30:04.944Z,17.03
2018-12-13T13:32:32.627Z,20.03
2018-12-13T13:35:00.754Z,18.30
2018-12-13T13:37:28.564Z,18.17
2018-12-13T13:39:56.052Z,19.97
2018-12-13T13:42:24.369Z,16.30
2018-12-13T13:44:54.416Z,19.00
2018-12-13T13:47:22.566Z,17.93
2018-12-13T13:49:50.488Z,20.93
2018-12-13T13:52:18.019Z,19.10
2018-12-13T13:54:46.462Z,18.93
2018-12-13T13:57:14.259Z,19.07
2018-12-13T13:59:41.971Z,17.20
2018-12-13T14:02:09.532Z,20.93
2018-12-13T14:04:37.317Z,18.40
2018-12-13T14:07:04.890Z,18.67
2018-12-13T14:09:37.707Z,18.20
2018-12-13T14:12:01.939Z,19.70
2018-12-13T14:14:29.773Z,19.13
2018-12-13T14:16:57.613Z,21.07
2018-12-13T14:19:25.332Z,19.50
2018-12-13T14:21:53.200Z,20.63
2018-12-13T14:24:20.661Z,20.63
2018-12-13T14:26:48.220Z,20.57
2018-12-13T14:29:16.036Z,20.50
2018-12-13T14:31:43.730Z,22.13
2018-12-13T14:34:11.632Z,22.13
2018-12-13T14:36:39.398Z,19.77
2018-12-13T14:39:06.987Z,20.40
2018-12-13T14:41:34.562Z,21.90
2018-12-13T14:44:02.307Z,22.47
2018-12-13T14:46:29.762Z,21.23
2018-12-13T14:48:57.437Z,24.63
2018-12-13T14:51:25.392Z,25.00
2018-12-13T14:53:52.850Z,24.07
2018-12-13T14:56:20.302Z,22.30
2018-12-13T14:58:47.815Z,21.77
2018-12-13T15:01:15.638Z,24.07
2018-12-13T15:03:44.091Z,23.90
2018-12-13T15:06:11.589Z,23.53
2018-12-13T15:08:39.085Z,24.00
2018-12-13T15:11:06.612Z,24.17
2018-12-13T15:13:34.215Z,23.90
2018-12-13T15:16:01.754Z,23.77
2018-12-13T15:18:29.890Z,22.87
2018-12-13T15:20:57.571Z,24.87
2018-12-13T15:23:25.073Z,25.30
2018-12-13T15:25:52.610Z,25.87
2018-12-13T15:28:20.381Z,24.73
2018-12-13T15:30:47.916Z,24.30
2018-12-13T15:33:15.609Z,24.63
2018-12-13T15:35:43.361Z,24.53
2018-12-13T15:38:10.889Z,23.87
2018-12-13T15:40:38.388Z,24.27
2018-12-13T15:43:06.156Z,26.73
2018-12-13T15:45:33.900Z,24.73
2018-12-13T15:48:01.428Z,25.70
2018-12-13T15:50:29.343Z,26.63
2018-12-13T15:52:56.832Z,24.93
2018-12-13T15:55:24.730Z,26.83
2018-12-13T15:57:52.265Z,25.17
2018-12-13T16:00:19.765Z,27.63
2018-12-13T16:02:47.276Z,26.00
2018-12-13T16:05:14.992Z,26.40
2018-12-13T16:07:42.479Z,24.63
2018-12-13T16:10:10.566Z,24.67
2018-12-13T16:12:38.048Z,26.17
2018-12-13T16:15:05.599Z,26.43
2018-12-13T16:17:33.408Z,23.97
2018-12-13T16:20:01.354Z,24.63
2018-12-13T16:22:28.862Z,26.50
2018-12-13T16:24:56.345Z,26.43
2018-12-13T16:27:23.905Z,26.57
2018-12-13T16:29:51.543Z,23.73
2018-12-13T16:32:19.441Z,24.83
2018-12-13T16:34:47.511Z,24.83
2018-12-13T16:37:15.456Z,24.03
2018-12-13T16:39:42.939Z,23.00
2018-12-13T16:42:10.446Z,25.50
2018-12-13T16:44:38.297Z,26.77
2018-12-13T16:47:05.836Z,25.50
2018-12-13T16:49:33.757Z,29.37
2018-12-13T16:52:01.740Z,26.77
2018-12-13T16:54:29.240Z,24.70
2018-12-13T16:56:56.789Z,26.07
2018-12-13T16:59:24.280Z,26.80
2018-12-13T17:01:52.160Z,26.57
2018-12-13T17:04:19.977Z,24.13
2018-12-13T17:06:47.510Z,25.53
2018-12-13T17:09:15.462Z,24.93
2018-12-13T17:11:42.999Z,24.13
2018-12-13T17:14:10.453Z,26.77
2018-12-13T17:16:38.169Z,29.10
2018-12-13T17:19:05.845Z,27.33
2018-12-13T17:21:33.332Z,26.43
2018-12-13T17:24:00.883Z,24.47
2018-12-13T17:26:28.417Z,24.67
2018-12-13T17:28:55.949Z,25.10
2018-12-13T17:31:23.542Z,24.37
2018-12-13T17:33:51.707Z,22.93
2018-12-13T17:36:19.597Z,24.40
2018-12-13T17:38:47.133Z,23.93
2018-12-13T17:41:14.658Z,24.60
2018-12-13T17:43:42.342Z,26.00
2018-12-13T17:46:10.137Z,24.30
2018-12-13T17:48:37.984Z,24.60
2018-12-13T17:51:05.902Z,22.93
2018-12-13T17:53:33.794Z,22.97
2018-12-13T17:56:01.644Z,24.83
2018-12-13T17:58:29.132Z,23.80
2018-12-13T18:00:56.666Z,25.57
2018-12-13T18:03:24.399Z,24.17
2018-12-13T18:05:52.266Z,26.50
2018-12-13T18:08:19.777Z,23.67
2018-12-13T18:10:47.269Z,27.13
2018-12-13T18:13:14.814Z,26.57
2018-12-13T18:15:42.322Z,25.83
2018-12-13T18:18:09.816Z,25.10
2018-12-13T18:20:37.510Z,25.10
2018-12-13T18:23:05.020Z,24.60
2018-12-13T18:25:32.561Z,26.57
2018-12-13T18:28:00.093Z,25.07
2018-12-13T18:30:27.757Z,25.27
2018-12-13T18:32:56.031Z,22.27
2018-12-13T18:35:23.856Z,21.63
2018-12-13T18:37:51.585Z,23.00
2018-12-13T18:40:19.108Z,21.67
2018-12-13T18:42:46.970Z,25.27
2018-12-13T18:45:14.954Z,23.90
2018-12-13T18:47:42.495Z,23.80
2018-12-13T18:50:10.281Z,23.43
2018-12-13T18:52:37.895Z,23.20
2018-12-13T18:55:05.436Z,21.97
2018-12-13T18:57:33.240Z,22.63
2018-12-13T19:00:00.775Z,24.83
2018-12-13T19:02:28.299Z,21.57
2018-12-13T19:04:56.224Z,21.57
2018-12-13T19:07:23.722Z,23.43
2018-12-13T19:09:51.255Z,23.10
2018-12-13T19:12:18.765Z,24.90
2018-12-13T19:14:46.268Z,25.47
2018-12-13T19:17:13.761Z,23.43
2018-12-13T19:19:41.593Z,22.87
2018-12-13T19:22:09.090Z,22.90
2018-12-13T19:24:36.580Z,24.17
2018-12-13T19:27:04.700Z,23.83
2018-12-13T19:29:32.288Z,22.33
2018-12-13T19:32:00.137Z,22.87
2018-12-13T19:34:28.167Z,21.80
2018-12-13T19:36:56.724Z,23.97
2018-12-13T19:39:24.217Z,22.70
2018-12-13T19:41:51.747Z,24.07
2018-12-13T19:44:19.566Z,21.67
2018-12-13T19:46:47.570Z,22.43
2018-12-13T19:49:15.492Z,22.00
2018-12-13T19:51:43.312Z,23.53
2018-12-13T19:54:10.927Z,22.10
2018-12-13T19:56:38.732Z,22.97
2018-12-13T19:59:06.213Z,23.17
2018-12-13T20:01:33.750Z,24.23
2018-12-13T20:04:02.030Z,22.47
2018-12-13T20:08:56.656Z,20.57
2018-12-13T20:11:24.188Z,25.23
2018-12-13T20:13:51.680Z,25.20
2018-12-13T20:16:19.341Z,24.87
2018-12-13T20:18:48.488Z,24.43
2018-12-13T20:21:16.136Z,23.20
2018-12-13T20:23:43.637Z,22.00
2018-12-13T20:26:11.413Z,23.67
2018-12-13T20:28:39.041Z,23.57
2018-12-13T20:31:06.602Z,22.93
2018-12-13T20:33:34.647Z,22.07
2018-12-13T20:36:02.420Z,21.77
2018-12-13T20:38:29.973Z,22.10
2018-12-13T20:41:00.930Z,24.63
2018-12-13T20:43:27.172Z,22.33
2018-12-13T20:45:55.137Z,22.63
2018-12-13T20:48:22.629Z,21.27
2018-12-13T20:50:50.346Z,22.00
2018-12-13T20:53:17.843Z,24.43
2018-12-13T20:55:45.631Z,22.07
2018-12-13T20:58:13.121Z,24.13
2018-12-13T21:00:41.136Z,25.77
2018-12-13T21:03:08.675Z,21.93
2018-12-13T21:05:36.483Z,23.53
2018-12-13T21:08:09.512Z,24.20
2018-12-13T21:10:37.864Z,21.97
2018-12-13T21:13:05.494Z,23.10
2018-12-13T21:15:33.028Z,24.73
2018-12-13T21:18:00.701Z,21.77
2018-12-13T21:20:28.550Z,21.83
2018-12-13T21:22:56.101Z,21.57
2018-12-13T21:25:23.690Z,23.07
2018-12-13T21:27:51.185Z,20.33
2018-12-13T21:30:18.693Z,21.80
2018-12-13T21:32:46.431Z,22.03
2018-12-13T21:35:15.545Z,21.80
2018-12-13T21:37:43.295Z,24.23
2018-12-13T21:40:10.788Z,20.17
2018-12-13T21:45:03.548Z,23.27
2018-12-13T21:47:31.301Z,23.73
2018-12-13T21:49:59.199Z,21.97
2018-12-13T21:52:26.697Z,23.37
2018-12-13T21:54:54.344Z,21.43
2018-12-13T21:57:22.168Z,23.40
2018-12-13T21:59:49.706Z,22.43
2018-12-13T22:02:17.298Z,22.80
2018-12-13T22:04:45.177Z,21.30
2018-12-13T22:07:12.680Z,19.57
2018-12-13T22:09:40.172Z,20.87
2018-12-13T22:12:07.704Z,20.20
2018-12-13T22:14:35.199Z,21.50
2018-12-13T22:17:02.696Z,22.43
2018-12-13T22:19:30.570Z,22.53
2018-12-13T22:21:58.103Z,21.97
2018-12-13T22:24:25.640Z,22.77
2018-12-13T22:26:53.455Z,21.90
2018-12-13T22:29:20.984Z,22.53
2018-12-13T22:31:49.008Z,22.07
2018-12-13T22:34:16.550Z,24.13
2018-12-13T22:36:44.175Z,22.03
2018-12-13T22:39:11.706Z,22.13
2018-12-13T22:41:39.312Z,22.50
2018-12-13T22:44:07.038Z,23.73
2018-12-13T22:46:34.568Z,22.43
2018-12-13T22:49:02.072Z,21.77
2018-12-13T22:51:29.860Z,23.33
2018-12-13T22:53:57.440Z,20.67
2018-12-13T22:56:24.953Z,23.50
2018-12-13T22:58:52.515Z,21.23
2018-12-13T23:01:20.070Z,19.37
2018-12-13T23:03:47.616Z,22.43
2018-12-13T23:06:15.173Z,23.37
2018-12-13T23:08:42.706Z,22.50
2018-12-13T23:11:10.265Z,22.37
2018-12-13T23:13:37.769Z,22.10
2018-12-13T23:16:05.334Z,20.87
2018-12-13T23:18:33.016Z,21.60
2018-12-13T23:21:00.857Z,22.57
2018-12-13T23:23:28.358Z,23.30
2018-12-13T23:25:56.065Z,21.27
2018-12-13T23:28:23.635Z,22.67
2018-12-13T23:30:51.545Z,23.40
2018-12-13T23:33:19.228Z,20.73
2018-12-13T23:35:46.866Z,21.30
2018-12-13T23:38:14.508Z,23.17
2018-12-13T23:40:42.143Z,23.53
2018-12-13T23:43:09.751Z,23.67
2018-12-13T23:45:38.577Z,22.40
2018-12-13T23:48:06.116Z,22.57
2018-12-13T23:50:33.766Z,23.73
2018-12-13T23:53:01.271Z,26.17
2018-12-13T23:55:28.773Z,22.33
2018-12-13T23:57:56.343Z,20.47
